sensor_id;sensor_type;location;lat;lon;timestamp;P1;durP1;ratioP1;P2;durP2;ratioP2
4971;SDS011;2501;51.214;6.768;2023-12-28T00:01:24;2.35;;;2.15;;
4971;SDS011;2501;51.214;6.768;2023-12-28T00:03:53;5.10;;;2.13;;
4971;SDS011;2501;51.214;6.768;2023-12-28T00:06:21;3.57;;;2.37;;
4971;SDS011;2501;51.214;6.768;2023-12-28T00:08:50;2.70;;;2.17;;
4971;SDS011;2501;51.214;6.768;2023-12-28T00:11:18;3.03;;;2.20;;
4971;SDS011;2501;51.214;6.768;2023-12-28T00:13:48;2.25;;;2.10;;
4971;SDS011;2501;51.214;6.768;2023-12-28T00:16:17;2.50;;;2.30;;
4971;SDS011;2501;51.214;6.768;2023-12-28T00:18:48;2.38;;;2.15;;
4971;SDS011;2501;51.214;6.768;2023-12-28T00:21:16;1.98;;;1.80;;
4971;SDS011;2501;51.214;6.768;2023-12-28T00:23:45;2.08;;;1.98;;
4971;SDS011;2501;51.214;6.768;2023-12-28T00:26:13;3.15;;;1.95;;
4971;SDS011;2501;51.214;6.768;2023-12-28T00:28:46;5.00;;;2.20;;
4971;SDS011;2501;51.214;6.768;2023-12-28T00:31:14;6.00;;;3.60;;
4971;SDS011;2501;51.214;6.768;2023-12-28T00:33:43;3.65;;;2.20;;
4971;SDS011;2501;51.214;6.768;2023-12-28T00:36:14;7.53;;;2.38;;
4971;SDS011;2501;51.214;6.768;2023-12-28T00:38:43;4.30;;;2.60;;
4971;SDS011;2501;51.214;6.768;2023-12-28T00:41:11;2.80;;;2.50;;
4971;SDS011;2501;51.214;6.768;2023-12-28T00:43:40;3.13;;;2.38;;
4971;SDS011;2501;51.214;6.768;2023-12-28T00:46:08;2.80;;;2.30;;
4971;SDS011;2501;51.214;6.768;2023-12-28T00:48:37;3.90;;;2.40;;
4971;SDS011;2501;51.214;6.768;2023-12-28T00:51:06;2.80;;;2.40;;
4971;SDS011;2501;51.214;6.768;2023-12-28T00:53:37;3.67;;;2.63;;
4971;SDS011;2501;51.214;6.768;2023-12-28T00:56:06;2.30;;;2.10;;
4971;SDS011;2501;51.214;6.768;2023-12-28T00:58:35;4.15;;;2.10;;
4971;SDS011;2501;51.214;6.768;2023-12-28T01:01:07;3.60;;;2.50;;
4971;SDS011;2501;51.214;6.768;2023-12-28T01:03:36;3.63;;;2.10;;
4971;SDS011;2501;51.214;6.768;2023-12-28T01:06:05;3.17;;;2.20;;
4971;SDS011;2501;51.214;6.768;2023-12-28T01:08:33;2.58;;;2.38;;
4971;SDS011;2501;51.214;6.768;2023-12-28T01:11:05;4.20;;;2.80;;
4971;SDS011;2501;51.214;6.768;2023-12-28T01:13:33;4.10;;;2.40;;
4971;SDS011;2501;51.214;6.768;2023-12-28T01:16:02;3.45;;;2.10;;
4971;SDS011;2501;51.214;6.768;2023-12-28T01:18:31;4.10;;;2.38;;
4971;SDS011;2501;51.214;6.768;2023-12-28T01:20:59;2.00;;;1.80;;
4971;SDS011;2501;51.214;6.768;2023-12-28T01:23:28;2.78;;;2.58;;
4971;SDS011;2501;51.214;6.768;2023-12-28T01:25:56;2.15;;;2.05;;
4971;SDS011;2501;51.214;6.768;2023-12-28T01:28:27;4.90;;;2.30;;
4971;SDS011;2501;51.214;6.768;2023-12-28T01:30:56;4.03;;;2.55;;
4971;SDS011;2501;51.214;6.768;2023-12-28T01:33:24;2.45;;;2.20;;
4971;SDS011;2501;51.214;6.768;2023-12-28T01:35:52;3.22;;;2.20;;
4971;SDS011;2501;51.214;6.768;2023-12-28T01:38:21;2.70;;;2.05;;
4971;SDS011;2501;51.214;6.768;2023-12-28T01:40:49;3.20;;;2.38;;
4971;SDS011;2501;51.214;6.768;2023-12-28T01:43:18;2.70;;;2.50;;
4971;SDS011;2501;51.214;6.768;2023-12-28T01:45:49;3.50;;;2.30;;
4971;SDS011;2501;51.214;6.768;2023-12-28T01:48:17;1.92;;;1.83;;
4971;SDS011;2501;51.214;6.768;2023-12-28T01:50:46;3.55;;;2.50;;
4971;SDS011;2501;51.214;6.768;2023-12-28T01:53:15;4.80;;;2.35;;
4971;SDS011;2501;51.214;6.768;2023-12-28T01:55:43;5.10;;;2.55;;
4971;SDS011;2501;51.214;6.768;2023-12-28T01:58:12;2.60;;;2.40;;
4971;SDS011;2501;51.214;6.768;2023-12-28T02:00:40;6.10;;;2.30;;
4971;SDS011;2501;51.214;6.768;2023-12-28T02:03:13;5.22;;;2.30;;
4971;SDS011;2501;51.214;6.768;2023-12-28T02:05:41;5.30;;;2.45;;
4971;SDS011;2501;51.214;6.768;2023-12-28T02:08:10;2.20;;;2.00;;
4971;SDS011;2501;51.214;6.768;2023-12-28T02:10:39;2.50;;;2.30;;
4971;SDS011;2501;51.214;6.768;2023-12-28T02:13:08;3.05;;;2.25;;
4971;SDS011;2501;51.214;6.768;2023-12-28T02:15:36;2.70;;;2.10;;
4971;SDS011;2501;51.214;6.768;2023-12-28T02:18:06;3.60;;;2.10;;
4971;SDS011;2501;51.214;6.768;2023-12-28T02:20:42;2.70;;;2.50;;
4971;SDS011;2501;51.214;6.768;2023-12-28T02:23:12;2.75;;;2.53;;
4971;SDS011;2501;51.214;6.768;2023-12-28T02:25:43;2.40;;;2.20;;
4971;SDS011;2501;51.214;6.768;2023-12-28T02:28:11;3.65;;;2.22;;
4971;SDS011;2501;51.214;6.768;2023-12-28T02:30:40;3.53;;;2.60;;
4971;SDS011;2501;51.214;6.768;2023-12-28T02:33:11;7.53;;;2.15;;
4971;SDS011;2501;51.214;6.768;2023-12-28T02:35:44;2.60;;;2.40;;
4971;SDS011;2501;51.214;6.768;2023-12-28T02:38:19;3.00;;;2.67;;
4971;SDS011;2501;51.214;6.768;2023-12-28T02:40:52;3.60;;;2.78;;
4971;SDS011;2501;51.214;6.768;2023-12-28T02:43:22;4.00;;;2.30;;
4971;SDS011;2501;51.214;6.768;2023-12-28T02:45:50;6.30;;;4.10;;
4971;SDS011;2501;51.214;6.768;2023-12-28T02:48:19;5.28;;;3.65;;
4971;SDS011;2501;51.214;6.768;2023-12-28T02:50:47;8.77;;;3.90;;
4971;SDS011;2501;51.214;6.768;2023-12-28T02:53:16;10.85;;;5.60;;
4971;SDS011;2501;51.214;6.768;2023-12-28T02:55:44;9.15;;;6.40;;
4971;SDS011;2501;51.214;6.768;2023-12-28T02:58:15;6.65;;;3.38;;
4971;SDS011;2501;51.214;6.768;2023-12-28T03:00:44;7.22;;;4.90;;
4971;SDS011;2501;51.214;6.768;2023-12-28T03:03:14;4.73;;;3.80;;
4971;SDS011;2501;51.214;6.768;2023-12-28T03:05:42;8.45;;;4.90;;
4971;SDS011;2501;51.214;6.768;2023-12-28T03:08:11;8.05;;;5.53;;
4971;SDS011;2501;51.214;6.768;2023-12-28T03:10:39;8.70;;;5.63;;
4971;SDS011;2501;51.214;6.768;2023-12-28T03:13:08;10.37;;;5.20;;
4971;SDS011;2501;51.214;6.768;2023-12-28T03:15:39;7.50;;;5.30;;
4971;SDS011;2501;51.214;6.768;2023-12-28T03:18:07;10.70;;;5.00;;
4971;SDS011;2501;51.214;6.768;2023-12-28T03:20:36;10.20;;;6.00;;
4971;SDS011;2501;51.214;6.768;2023-12-28T03:23:04;12.60;;;5.88;;
4971;SDS011;2501;51.214;6.768;2023-12-28T03:25:33;7.13;;;4.03;;
4971;SDS011;2501;51.214;6.768;2023-12-28T03:28:01;10.15;;;5.60;;
4971;SDS011;2501;51.214;6.768;2023-12-28T03:30:29;6.10;;;3.40;;
4971;SDS011;2501;51.214;6.768;2023-12-28T03:33:01;8.88;;;5.88;;
4971;SDS011;2501;51.214;6.768;2023-12-28T03:35:29;6.75;;;4.43;;
4971;SDS011;2501;51.214;6.768;2023-12-28T03:37:57;10.07;;;6.17;;
4971;SDS011;2501;51.214;6.768;2023-12-28T03:40:26;5.25;;;4.18;;
4971;SDS011;2501;51.214;6.768;2023-12-28T03:42:54;9.25;;;4.95;;
4971;SDS011;2501;51.214;6.768;2023-12-28T03:45:23;7.78;;;4.15;;
4971;SDS011;2501;51.214;6.768;2023-12-28T03:47:51;10.27;;;5.60;;
4971;SDS011;2501;51.214;6.768;2023-12-28T03:50:23;10.40;;;6.30;;
4971;SDS011;2501;51.214;6.768;2023-12-28T03:52:51;8.80;;;4.83;;
4971;SDS011;2501;51.214;6.768;2023-12-28T03:55:19;7.88;;;5.13;;
4971;SDS011;2501;51.214;6.768;2023-12-28T03:57:48;12.13;;;5.70;;
4971;SDS011;2501;51.214;6.768;2023-12-28T04:00:16;4.90;;;3.30;;
4971;SDS011;2501;51.214;6.768;2023-12-28T04:02:46;7.50;;;5.10;;
4971;SDS011;2501;51.214;6.768;2023-12-28T04:05:14;8.00;;;4.30;;
4971;SDS011;2501;51.214;6.768;2023-12-28T04:07:45;6.35;;;4.25;;
4971;SDS011;2501;51.214;6.768;2023-12-28T04:10:15;8.63;;;4.23;;
4971;SDS011;2501;51.214;6.768;2023-12-28T04:12:47;6.38;;;4.22;;
4971;SDS011;2501;51.214;6.768;2023-12-28T04:15:20;10.38;;;4.90;;
4971;SDS011;2501;51.214;6.768;2023-12-28T04:17:48;8.05;;;3.85;;
4971;SDS011;2501;51.214;6.768;2023-12-28T04:20:17;7.10;;;5.30;;
4971;SDS011;2501;51.214;6.768;2023-12-28T04:22:48;7.88;;;3.63;;
4971;SDS011;2501;51.214;6.768;2023-12-28T04:25:16;7.70;;;4.18;;
4971;SDS011;2501;51.214;6.768;2023-12-28T04:27:45;10.82;;;4.57;;
4971;SDS011;2501;51.214;6.768;2023-12-28T04:30:14;7.97;;;3.70;;
4971;SDS011;2501;51.214;6.768;2023-12-28T04:32:43;6.60;;;3.35;;
4971;SDS011;2501;51.214;6.768;2023-12-28T04:35:11;7.95;;;2.92;;
4971;SDS011;2501;51.214;6.768;2023-12-28T04:37:40;4.10;;;2.33;;
4971;SDS011;2501;51.214;6.768;2023-12-28T04:40:11;8.20;;;2.80;;
4971;SDS011;2501;51.214;6.768;2023-12-28T04:42:42;4.70;;;2.60;;
4971;SDS011;2501;51.214;6.768;2023-12-28T04:45:10;5.13;;;2.93;;
4971;SDS011;2501;51.214;6.768;2023-12-28T04:47:39;3.10;;;2.20;;
4971;SDS011;2501;51.214;6.768;2023-12-28T04:50:07;4.35;;;2.30;;
4971;SDS011;2501;51.214;6.768;2023-12-28T04:52:36;6.28;;;2.65;;
4971;SDS011;2501;51.214;6.768;2023-12-28T04:55:06;2.30;;;2.10;;
4971;SDS011;2501;51.214;6.768;2023-12-28T04:57:37;7.22;;;2.42;;
4971;SDS011;2501;51.214;6.768;2023-12-28T05:00:06;4.53;;;2.10;;
4971;SDS011;2501;51.214;6.768;2023-12-28T05:02:36;4.22;;;2.45;;
4971;SDS011;2501;51.214;6.768;2023-12-28T05:05:05;5.90;;;2.40;;
4971;SDS011;2501;51.214;6.768;2023-12-28T05:07:34;4.38;;;2.10;;
4971;SDS011;2501;51.214;6.768;2023-12-28T05:10:03;4.00;;;2.00;;
4971;SDS011;2501;51.214;6.768;2023-12-28T05:12:32;6.40;;;2.90;;
4971;SDS011;2501;51.214;6.768;2023-12-28T05:15:03;3.58;;;2.00;;
4971;SDS011;2501;51.214;6.768;2023-12-28T05:17:32;5.70;;;2.15;;
4971;SDS011;2501;51.214;6.768;2023-12-28T05:20:01;3.53;;;2.60;;
4971;SDS011;2501;51.214;6.768;2023-12-28T05:22:29;5.07;;;2.97;;
4971;SDS011;2501;51.214;6.768;2023-12-28T05:24:58;4.05;;;2.10;;
4971;SDS011;2501;51.214;6.768;2023-12-28T05:27:27;5.10;;;2.10;;
4971;SDS011;2501;51.214;6.768;2023-12-28T05:29:55;7.18;;;2.30;;
4971;SDS011;2501;51.214;6.768;2023-12-28T05:32:26;6.77;;;2.50;;
4971;SDS011;2501;51.214;6.768;2023-12-28T05:34:55;3.10;;;2.67;;
4971;SDS011;2501;51.214;6.768;2023-12-28T05:37:23;8.13;;;2.10;;
4971;SDS011;2501;51.214;6.768;2023-12-28T05:39:52;4.13;;;1.92;;
4971;SDS011;2501;51.214;6.768;2023-12-28T05:42:20;6.03;;;2.40;;
4971;SDS011;2501;51.214;6.768;2023-12-28T05:44:49;3.78;;;2.33;;
4971;SDS011;2501;51.214;6.768;2023-12-28T05:47:17;3.38;;;1.83;;
4971;SDS011;2501;51.214;6.768;2023-12-28T05:49:48;5.00;;;2.30;;
4971;SDS011;2501;51.214;6.768;2023-12-28T05:52:17;4.28;;;2.58;;
4971;SDS011;2501;51.214;6.768;2023-12-28T05:54:46;5.88;;;2.33;;
4971;SDS011;2501;51.214;6.768;2023-12-28T05:57:14;3.63;;;2.00;;
4971;SDS011;2501;51.214;6.768;2023-12-28T05:59:43;4.55;;;2.42;;
4971;SDS011;2501;51.214;6.768;2023-12-28T06:02:11;4.78;;;2.13;;
4971;SDS011;2501;51.214;6.768;2023-12-28T06:04:40;3.40;;;2.23;;
4971;SDS011;2501;51.214;6.768;2023-12-28T06:07:11;5.50;;;2.28;;
4971;SDS011;2501;51.214;6.768;2023-12-28T06:09:40;3.83;;;2.10;;
4971;SDS011;2501;51.214;6.768;2023-12-28T06:12:08;3.05;;;2.00;;
4971;SDS011;2501;51.214;6.768;2023-12-28T06:14:37;5.87;;;2.30;;
4971;SDS011;2501;51.214;6.768;2023-12-28T06:17:07;7.43;;;2.50;;
4971;SDS011;2501;51.214;6.768;2023-12-28T06:19:35;5.70;;;2.38;;
4971;SDS011;2501;51.214;6.768;2023-12-28T06:22:04;6.55;;;2.33;;
4971;SDS011;2501;51.214;6.768;2023-12-28T06:24:36;5.47;;;2.90;;
4971;SDS011;2501;51.214;6.768;2023-12-28T06:27:05;7.95;;;3.33;;
4971;SDS011;2501;51.214;6.768;2023-12-28T06:29:34;3.10;;;2.17;;
4971;SDS011;2501;51.214;6.768;2023-12-28T06:32:03;6.40;;;2.53;;
4971;SDS011;2501;51.214;6.768;2023-12-28T06:34:32;3.75;;;2.30;;
4971;SDS011;2501;51.214;6.768;2023-12-28T06:37:00;5.78;;;2.60;;
4971;SDS011;2501;51.214;6.768;2023-12-28T06:39:29;7.60;;;2.50;;
4971;SDS011;2501;51.214;6.768;2023-12-28T06:42:00;6.88;;;2.63;;
4971;SDS011;2501;51.214;6.768;2023-12-28T06:44:28;8.65;;;2.55;;
4971;SDS011;2501;51.214;6.768;2023-12-28T06:46:57;10.70;;;2.70;;
4971;SDS011;2501;51.214;6.768;2023-12-28T06:49:26;10.65;;;2.88;;
4971;SDS011;2501;51.214;6.768;2023-12-28T06:51:54;7.13;;;2.80;;
4971;SDS011;2501;51.214;6.768;2023-12-28T06:54:23;8.15;;;2.80;;
4971;SDS011;2501;51.214;6.768;2023-12-28T06:56:51;6.77;;;2.20;;
4971;SDS011;2501;51.214;6.768;2023-12-28T06:59:22;4.90;;;2.33;;
4971;SDS011;2501;51.214;6.768;2023-12-28T07:01:51;9.10;;;2.40;;
4971;SDS011;2501;51.214;6.768;2023-12-28T07:04:19;7.35;;;2.42;;
4971;SDS011;2501;51.214;6.768;2023-12-28T07:06:50;6.18;;;2.38;;
4971;SDS011;2501;51.214;6.768;2023-12-28T07:09:19;8.45;;;2.30;;
4971;SDS011;2501;51.214;6.768;2023-12-28T07:11:47;4.38;;;2.40;;
4971;SDS011;2501;51.214;6.768;2023-12-28T07:14:16;7.13;;;2.30;;
4971;SDS011;2501;51.214;6.768;2023-12-28T07:16:47;6.38;;;2.40;;
4971;SDS011;2501;51.214;6.768;2023-12-28T07:19:15;4.70;;;2.30;;
4971;SDS011;2501;51.214;6.768;2023-12-28T07:21:44;8.47;;;2.50;;
4971;SDS011;2501;51.214;6.768;2023-12-28T07:24:12;9.75;;;2.92;;
4971;SDS011;2501;51.214;6.768;2023-12-28T07:26:41;8.93;;;2.00;;
4971;SDS011;2501;51.214;6.768;2023-12-28T07:29:09;7.80;;;2.53;;
4971;SDS011;2501;51.214;6.768;2023-12-28T07:31:38;9.75;;;2.40;;
4971;SDS011;2501;51.214;6.768;2023-12-28T07:34:09;6.77;;;2.47;;
4971;SDS011;2501;51.214;6.768;2023-12-28T07:36:37;7.28;;;2.83;;
4971;SDS011;2501;51.214;6.768;2023-12-28T07:39:08;3.40;;;2.08;;
4971;SDS011;2501;51.214;6.768;2023-12-28T07:41:38;3.85;;;1.90;;
4971;SDS011;2501;51.214;6.768;2023-12-28T07:44:06;5.30;;;2.50;;
4971;SDS011;2501;51.214;6.768;2023-12-28T07:46:34;3.47;;;2.20;;
4971;SDS011;2501;51.214;6.768;2023-12-28T07:49:03;11.10;;;2.30;;
4971;SDS011;2501;51.214;6.768;2023-12-28T07:51:34;13.50;;;2.42;;
4971;SDS011;2501;51.214;6.768;2023-12-28T07:54:03;5.85;;;3.10;;
4971;SDS011;2501;51.214;6.768;2023-12-28T07:56:31;5.80;;;2.17;;
4971;SDS011;2501;51.214;6.768;2023-12-28T07:58:59;8.98;;;2.80;;
4971;SDS011;2501;51.214;6.768;2023-12-28T08:01:28;9.32;;;3.22;;
4971;SDS011;2501;51.214;6.768;2023-12-28T08:03:58;7.55;;;2.70;;
4971;SDS011;2501;51.214;6.768;2023-12-28T08:06:27;6.50;;;2.35;;
4971;SDS011;2501;51.214;6.768;2023-12-28T08:09:00;7.20;;;2.50;;
4971;SDS011;2501;51.214;6.768;2023-12-28T08:11:29;8.93;;;2.25;;
4971;SDS011;2501;51.214;6.768;2023-12-28T08:13:57;5.82;;;2.40;;
4971;SDS011;2501;51.214;6.768;2023-12-28T08:16:26;4.38;;;2.10;;
4971;SDS011;2501;51.214;6.768;2023-12-28T08:18:55;8.97;;;2.50;;
4971;SDS011;2501;51.214;6.768;2023-12-28T08:21:23;10.05;;;2.50;;
4971;SDS011;2501;51.214;6.768;2023-12-28T08:23:52;13.02;;;2.58;;
4971;SDS011;2501;51.214;6.768;2023-12-28T08:26:23;7.82;;;2.22;;
4971;SDS011;2501;51.214;6.768;2023-12-28T08:28:52;9.05;;;3.28;;
4971;SDS011;2501;51.214;6.768;2023-12-28T08:31:21;11.73;;;3.20;;
4971;SDS011;2501;51.214;6.768;2023-12-28T08:33:49;8.23;;;2.40;;
4971;SDS011;2501;51.214;6.768;2023-12-28T08:36:17;7.60;;;2.35;;
4971;SDS011;2501;51.214;6.768;2023-12-28T08:38:46;9.90;;;2.87;;
4971;SDS011;2501;51.214;6.768;2023-12-28T08:41:17;10.10;;;2.33;;
4971;SDS011;2501;51.214;6.768;2023-12-28T08:43:49;8.68;;;2.13;;
4971;SDS011;2501;51.214;6.768;2023-12-28T08:46:19;9.50;;;3.50;;
4971;SDS011;2501;51.214;6.768;2023-12-28T08:48:47;10.82;;;3.10;;
4971;SDS011;2501;51.214;6.768;2023-12-28T08:51:16;10.15;;;3.08;;
4971;SDS011;2501;51.214;6.768;2023-12-28T08:53:45;10.32;;;2.67;;
4971;SDS011;2501;51.214;6.768;2023-12-28T08:56:16;11.13;;;3.20;;
4971;SDS011;2501;51.214;6.768;2023-12-28T08:58:45;7.00;;;2.90;;
4971;SDS011;2501;51.214;6.768;2023-12-28T09:01:19;8.98;;;2.92;;
4971;SDS011;2501;51.214;6.768;2023-12-28T09:03:50;10.68;;;2.67;;
4971;SDS011;2501;51.214;6.768;2023-12-28T09:06:20;8.27;;;5.57;;
4971;SDS011;2501;51.214;6.768;2023-12-28T09:08:49;12.82;;;3.15;;
4971;SDS011;2501;51.214;6.768;2023-12-28T09:11:18;7.43;;;2.70;;
4971;SDS011;2501;51.214;6.768;2023-12-28T09:13:47;7.82;;;3.30;;
4971;SDS011;2501;51.214;6.768;2023-12-28T09:16:18;10.38;;;2.83;;
4971;SDS011;2501;51.214;6.768;2023-12-28T09:18:47;6.80;;;2.45;;
4971;SDS011;2501;51.214;6.768;2023-12-28T09:21:15;11.18;;;2.67;;
4971;SDS011;2501;51.214;6.768;2023-12-28T09:23:44;15.10;;;3.25;;
4971;SDS011;2501;51.214;6.768;2023-12-28T09:26:12;7.97;;;2.47;;
4971;SDS011;2501;51.214;6.768;2023-12-28T09:28:41;9.73;;;2.40;;
4971;SDS011;2501;51.214;6.768;2023-12-28T09:31:09;9.30;;;2.40;;
4971;SDS011;2501;51.214;6.768;2023-12-28T09:33:40;5.63;;;2.38;;
4971;SDS011;2501;51.214;6.768;2023-12-28T09:36:09;10.13;;;2.90;;
4971;SDS011;2501;51.214;6.768;2023-12-28T09:38:38;8.95;;;2.80;;
4971;SDS011;2501;51.214;6.768;2023-12-28T09:41:08;13.10;;;2.50;;
4971;SDS011;2501;51.214;6.768;2023-12-28T09:43:41;5.63;;;2.70;;
4971;SDS011;2501;51.214;6.768;2023-12-28T09:46:19;9.75;;;2.78;;
4971;SDS011;2501;51.214;6.768;2023-12-28T09:48:50;9.90;;;3.00;;
4971;SDS011;2501;51.214;6.768;2023-12-28T09:51:21;10.50;;;2.70;;
4971;SDS011;2501;51.214;6.768;2023-12-28T09:53:50;8.10;;;3.22;;
4971;SDS011;2501;51.214;6.768;2023-12-28T09:56:19;10.75;;;2.30;;
4971;SDS011;2501;51.214;6.768;2023-12-28T09:58:48;15.60;;;3.10;;
4971;SDS011;2501;51.214;6.768;2023-12-28T10:01:19;9.60;;;2.60;;
4971;SDS011;2501;51.214;6.768;2023-12-28T10:03:51;13.20;;;3.05;;
4971;SDS011;2501;51.214;6.768;2023-12-28T10:06:22;8.27;;;2.50;;
4971;SDS011;2501;51.214;6.768;2023-12-28T10:08:51;11.05;;;2.90;;
4971;SDS011;2501;51.214;6.768;2023-12-28T10:11:21;10.00;;;2.40;;
4971;SDS011;2501;51.214;6.768;2023-12-28T10:13:53;14.13;;;5.30;;
4971;SDS011;2501;51.214;6.768;2023-12-28T10:16:23;12.97;;;2.80;;
4971;SDS011;2501;51.214;6.768;2023-12-28T10:18:55;8.63;;;2.80;;
4971;SDS011;2501;51.214;6.768;2023-12-28T10:21:25;19.77;;;3.40;;
4971;SDS011;2501;51.214;6.768;2023-12-28T10:23:53;15.00;;;3.70;;
4971;SDS011;2501;51.214;6.768;2023-12-28T10:26:22;7.45;;;2.70;;
4971;SDS011;2501;51.214;6.768;2023-12-28T10:28:56;14.05;;;2.40;;
4971;SDS011;2501;51.214;6.768;2023-12-28T10:31:25;12.15;;;3.20;;
4971;SDS011;2501;51.214;6.768;2023-12-28T10:33:56;12.85;;;3.60;;
4971;SDS011;2501;51.214;6.768;2023-12-28T10:36:27;8.88;;;2.33;;
4971;SDS011;2501;51.214;6.768;2023-12-28T10:38:55;13.45;;;2.60;;
4971;SDS011;2501;51.214;6.768;2023-12-28T10:41:25;10.48;;;2.42;;
4971;SDS011;2501;51.214;6.768;2023-12-28T10:43:59;14.20;;;3.75;;
4971;SDS011;2501;51.214;6.768;2023-12-28T10:46:31;9.40;;;2.60;;
4971;SDS011;2501;51.214;6.768;2023-12-28T10:49:05;10.80;;;3.13;;
4971;SDS011;2501;51.214;6.768;2023-12-28T10:51:38;13.20;;;3.15;;
4971;SDS011;2501;51.214;6.768;2023-12-28T10:54:14;7.90;;;2.55;;
4971;SDS011;2501;51.214;6.768;2023-12-28T10:56:53;12.68;;;2.90;;
4971;SDS011;2501;51.214;6.768;2023-12-28T10:59:30;10.60;;;3.25;;
4971;SDS011;2501;51.214;6.768;2023-12-28T11:02:06;10.05;;;3.03;;
4971;SDS011;2501;51.214;6.768;2023-12-28T11:04:44;9.18;;;2.60;;
4971;SDS011;2501;51.214;6.768;2023-12-28T11:07:17;6.97;;;2.80;;
4971;SDS011;2501;51.214;6.768;2023-12-28T11:09:46;10.33;;;3.50;;
4971;SDS011;2501;51.214;6.768;2023-12-28T11:12:16;6.60;;;2.30;;
4971;SDS011;2501;51.214;6.768;2023-12-28T11:14:46;11.27;;;2.85;;
4971;SDS011;2501;51.214;6.768;2023-12-28T11:17:17;9.57;;;3.25;;
4971;SDS011;2501;51.214;6.768;2023-12-28T11:19:52;8.57;;;2.35;;
4971;SDS011;2501;51.214;6.768;2023-12-28T11:22:22;8.97;;;2.40;;
4971;SDS011;2501;51.214;6.768;2023-12-28T11:24:52;12.32;;;2.97;;
4971;SDS011;2501;51.214;6.768;2023-12-28T11:27:21;19.10;;;2.90;;
4971;SDS011;2501;51.214;6.768;2023-12-28T11:29:51;9.30;;;2.70;;
4971;SDS011;2501;51.214;6.768;2023-12-28T11:32:19;7.22;;;2.60;;
4971;SDS011;2501;51.214;6.768;2023-12-28T11:34:58;11.18;;;2.70;;
4971;SDS011;2501;51.214;6.768;2023-12-28T11:37:27;13.35;;;2.60;;
4971;SDS011;2501;51.214;6.768;2023-12-28T11:39:57;7.68;;;3.05;;
4971;SDS011;2501;51.214;6.768;2023-12-28T11:42:27;15.67;;;3.30;;
4971;SDS011;2501;51.214;6.768;2023-12-28T11:44:57;12.85;;;2.90;;
4971;SDS011;2501;51.214;6.768;2023-12-28T11:47:26;10.20;;;2.60;;
4971;SDS011;2501;51.214;6.768;2023-12-28T11:49:57;10.73;;;2.70;;
4971;SDS011;2501;51.214;6.768;2023-12-28T11:52:34;11.15;;;2.30;;
4971;SDS011;2501;51.214;6.768;2023-12-28T11:55:03;12.20;;;2.42;;
4971;SDS011;2501;51.214;6.768;2023-12-28T11:57:32;7.28;;;2.00;;
4971;SDS011;2501;51.214;6.768;2023-12-28T12:00:01;13.77;;;3.20;;
4971;SDS011;2501;51.214;6.768;2023-12-28T12:02:30;7.93;;;2.47;;
4971;SDS011;2501;51.214;6.768;2023-12-28T12:05:02;11.93;;;2.58;;
4971;SDS011;2501;51.214;6.768;2023-12-28T12:07:31;14.90;;;2.78;;
4971;SDS011;2501;51.214;6.768;2023-12-28T12:09:59;21.10;;;3.23;;
4971;SDS011;2501;51.214;6.768;2023-12-28T12:12:28;10.60;;;2.70;;
4971;SDS011;2501;51.214;6.768;2023-12-28T12:14:57;7.38;;;3.05;;
4971;SDS011;2501;51.214;6.768;2023-12-28T12:17:26;5.55;;;2.38;;
4971;SDS011;2501;51.214;6.768;2023-12-28T12:19:54;11.15;;;2.80;;
4971;SDS011;2501;51.214;6.768;2023-12-28T12:22:26;8.05;;;2.60;;
4971;SDS011;2501;51.214;6.768;2023-12-28T12:24:54;9.90;;;2.75;;
4971;SDS011;2501;51.214;6.768;2023-12-28T12:27:26;11.50;;;2.97;;
4971;SDS011;2501;51.214;6.768;2023-12-28T12:29:54;9.95;;;3.00;;
4971;SDS011;2501;51.214;6.768;2023-12-28T12:32:23;12.23;;;2.78;;
4971;SDS011;2501;51.214;6.768;2023-12-28T12:34:51;11.35;;;2.70;;
4971;SDS011;2501;51.214;6.768;2023-12-28T12:37:20;6.78;;;2.85;;
4971;SDS011;2501;51.214;6.768;2023-12-28T12:39:52;8.50;;;2.63;;
4971;SDS011;2501;51.214;6.768;2023-12-28T12:42:21;9.70;;;2.85;;
4971;SDS011;2501;51.214;6.768;2023-12-28T12:44:49;14.77;;;2.92;;
4971;SDS011;2501;51.214;6.768;2023-12-28T12:47:18;19.38;;;3.35;;
4971;SDS011;2501;51.214;6.768;2023-12-28T12:49:46;9.80;;;3.47;;
4971;SDS011;2501;51.214;6.768;2023-12-28T12:52:15;7.03;;;2.65;;
4971;SDS011;2501;51.214;6.768;2023-12-28T12:54:43;13.25;;;3.63;;
4971;SDS011;2501;51.214;6.768;2023-12-28T12:57:24;15.15;;;3.40;;
4971;SDS011;2501;51.214;6.768;2023-12-28T12:59:53;11.73;;;3.17;;
4971;SDS011;2501;51.214;6.768;2023-12-28T13:02:22;10.20;;;3.17;;
4971;SDS011;2501;51.214;6.768;2023-12-28T13:04:52;11.75;;;2.55;;
4971;SDS011;2501;51.214;6.768;2023-12-28T13:07:22;11.65;;;3.42;;
4971;SDS011;2501;51.214;6.768;2023-12-28T13:09:51;12.57;;;2.20;;
4971;SDS011;2501;51.214;6.768;2023-12-28T13:12:23;8.63;;;2.25;;
4971;SDS011;2501;51.214;6.768;2023-12-28T13:14:51;12.53;;;3.20;;
4971;SDS011;2501;51.214;6.768;2023-12-28T13:17:20;11.00;;;3.10;;
4971;SDS011;2501;51.214;6.768;2023-12-28T13:19:49;15.18;;;4.00;;
4971;SDS011;2501;51.214;6.768;2023-12-28T13:22:17;9.73;;;2.50;;
4971;SDS011;2501;51.214;6.768;2023-12-28T13:24:46;8.70;;;2.67;;
4971;SDS011;2501;51.214;6.768;2023-12-28T13:27:14;13.43;;;2.80;;
4971;SDS011;2501;51.214;6.768;2023-12-28T13:29:46;8.80;;;2.57;;
4971;SDS011;2501;51.214;6.768;2023-12-28T13:32:15;12.02;;;3.22;;
4971;SDS011;2501;51.214;6.768;2023-12-28T13:34:43;10.98;;;2.75;;
4971;SDS011;2501;51.214;6.768;2023-12-28T13:37:12;6.50;;;2.55;;
4971;SDS011;2501;51.214;6.768;2023-12-28T13:39:40;8.70;;;2.70;;
4971;SDS011;2501;51.214;6.768;2023-12-28T13:42:09;12.10;;;4.20;;
4971;SDS011;2501;51.214;6.768;2023-12-28T13:44:37;12.45;;;3.42;;
4971;SDS011;2501;51.214;6.768;2023-12-28T13:47:09;11.40;;;3.50;;
4971;SDS011;2501;51.214;6.768;2023-12-28T13:49:37;15.25;;;3.15;;
4971;SDS011;2501;51.214;6.768;2023-12-28T13:52:06;11.25;;;3.20;;
4971;SDS011;2501;51.214;6.768;2023-12-28T13:54:34;6.57;;;2.40;;
4971;SDS011;2501;51.214;6.768;2023-12-28T13:57:03;6.57;;;2.77;;
4971;SDS011;2501;51.214;6.768;2023-12-28T13:59:32;10.32;;;2.67;;
4971;SDS011;2501;51.214;6.768;2023-12-28T14:02:01;10.20;;;3.03;;
4971;SDS011;2501;51.214;6.768;2023-12-28T14:04:32;9.10;;;3.22;;
4971;SDS011;2501;51.214;6.768;2023-12-28T14:07:00;8.55;;;3.03;;
4971;SDS011;2501;51.214;6.768;2023-12-28T14:09:29;9.38;;;2.80;;
4971;SDS011;2501;51.214;6.768;2023-12-28T14:11:58;12.07;;;2.43;;
4971;SDS011;2501;51.214;6.768;2023-12-28T14:14:26;10.20;;;2.40;;
4971;SDS011;2501;51.214;6.768;2023-12-28T14:16:55;9.13;;;2.45;;
4971;SDS011;2501;51.214;6.768;2023-12-28T14:19:23;7.85;;;2.63;;
4971;SDS011;2501;51.214;6.768;2023-12-28T14:21:54;6.57;;;1.92;;
4971;SDS011;2501;51.214;6.768;2023-12-28T14:24:23;10.30;;;2.35;;
4971;SDS011;2501;51.214;6.768;2023-12-28T14:26:53;12.70;;;2.40;;
4971;SDS011;2501;51.214;6.768;2023-12-28T14:29:22;5.80;;;2.80;;
4971;SDS011;2501;51.214;6.768;2023-12-28T14:31:52;14.48;;;2.63;;
4971;SDS011;2501;51.214;6.768;2023-12-28T14:34:21;6.00;;;1.90;;
4971;SDS011;2501;51.214;6.768;2023-12-28T14:36:54;8.80;;;2.65;;
4971;SDS011;2501;51.214;6.768;2023-12-28T14:39:22;7.93;;;2.40;;
4971;SDS011;2501;51.214;6.768;2023-12-28T14:41:51;12.65;;;4.00;;
4971;SDS011;2501;51.214;6.768;2023-12-28T14:44:20;14.70;;;3.10;;
4971;SDS011;2501;51.214;6.768;2023-12-28T14:46:48;8.15;;;2.22;;
4971;SDS011;2501;51.214;6.768;2023-12-28T14:49:17;9.15;;;3.08;;
4971;SDS011;2501;51.214;6.768;2023-12-28T14:51:45;12.50;;;2.28;;
4971;SDS011;2501;51.214;6.768;2023-12-28T14:54:17;8.17;;;2.70;;
4971;SDS011;2501;51.214;6.768;2023-12-28T14:56:45;11.40;;;2.63;;
4971;SDS011;2501;51.214;6.768;2023-12-28T14:59:13;12.02;;;3.67;;
4971;SDS011;2501;51.214;6.768;2023-12-28T15:01:42;11.77;;;3.17;;
4971;SDS011;2501;51.214;6.768;2023-12-28T15:04:11;10.65;;;2.75;;
4971;SDS011;2501;51.214;6.768;2023-12-28T15:06:39;8.82;;;2.80;;
4971;SDS011;2501;51.214;6.768;2023-12-28T15:09:08;18.17;;;4.03;;
4971;SDS011;2501;51.214;6.768;2023-12-28T15:11:39;7.10;;;2.40;;
4971;SDS011;2501;51.214;6.768;2023-12-28T15:14:09;8.38;;;2.70;;
4971;SDS011;2501;51.214;6.768;2023-12-28T15:16:38;6.57;;;2.90;;
4971;SDS011;2501;51.214;6.768;2023-12-28T15:19:07;8.65;;;2.95;;
4971;SDS011;2501;51.214;6.768;2023-12-28T15:21:35;9.33;;;2.90;;
4971;SDS011;2501;51.214;6.768;2023-12-28T15:24:05;7.22;;;1.90;;
4971;SDS011;2501;51.214;6.768;2023-12-28T15:26:34;13.68;;;3.40;;